McConnellsburg, Pennsylvania
Current Conditions -  °F | °C
As of 11:53 PM on Sunday 19 Oct 2014 (Local Time) from KHGR Reporting Station
Clear Clear  
Wind Chill: 46°   Ceiling: Unl
Heat Index: 48°   Visibility: 10mi
Dew Point: 32°   Wind: 5mph
Humidity: 54%   Direction: 200°SSW
Pressure: 30.09"   Gusts: NA
Location:  39.93°N, 78°W
Report Text: KHGR 200353Z AUTO 20004KT 10SM CLR 09/00 A3009 RMK AO2 SLP201 T00890000
Loading
Personal Weather Stations






























Interactive Weather Map
Tropical Storm Tracking
New forecast layout! Learn more

10-Day Weather Forecast

Advertisements
Track Severe Weather on mobile